Huntsville, Arkansas
Current Conditions -  °F | °C
As of 8:48 PM on Friday 28 Nov 2014 (Local Time) from KASG Reporting Station
Clear Clear  
Wind Chill: 54°   Ceiling: Unl
Heat Index: 54°   Visibility: 10mi
Dew Point: 41°   Wind: 8mph
Humidity: 62%   Direction: 190°S
Pressure: 29.97"   Gusts: NA
Location:  36.09°N, 93.74°W
Report Text: KASG 290248Z 19007KT 10SM SKC 12/05 A2997
Loading
Personal Weather Stations






























Interactive Weather Map New forecast layout! Learn more

10-Day Weather Forecast

Advertisements
Track Severe Weather on mobile